sensor_id;sensor_type;location;lat;lon;timestamp;temperature;humidity
36800;DHT22;22752;51.960;5.886;2024-03-08T00:02:00;3.60;99.90
36800;DHT22;22752;51.960;5.886;2024-03-08T00:04:26;3.70;99.90
36800;DHT22;22752;51.960;5.886;2024-03-08T00:06:52;3.60;99.90
36800;DHT22;22752;51.960;5.886;2024-03-08T00:09:17;3.60;99.90
36800;DHT22;22752;51.960;5.886;2024-03-08T00:11:43;3.60;99.90
36800;DHT22;22752;51.960;5.886;2024-03-08T00:14:09;3.60;99.90
36800;DHT22;22752;51.960;5.886;2024-03-08T00:16:35;3.50;99.90
36800;DHT22;22752;51.960;5.886;2024-03-08T00:19:04;3.50;99.90
36800;DHT22;22752;51.960;5.886;2024-03-08T00:21:29;3.60;99.90
36800;DHT22;22752;51.960;5.886;2024-03-08T00:23:55;3.50;99.90
36800;DHT22;22752;51.960;5.886;2024-03-08T00:26:21;3.50;99.90
36800;DHT22;22752;51.960;5.886;2024-03-08T00:28:49;3.50;99.90
36800;DHT22;22752;51.960;5.886;2024-03-08T00:31:15;3.50;99.90
36800;DHT22;22752;51.960;5.886;2024-03-08T00:33:44;3.40;99.90
36800;DHT22;22752;51.960;5.886;2024-03-08T00:36:09;3.40;99.90
36800;DHT22;22752;51.960;5.886;2024-03-08T00:38:35;3.40;99.90
36800;DHT22;22752;51.960;5.886;2024-03-08T00:41:01;3.40;99.90
36800;DHT22;22752;51.960;5.886;2024-03-08T00:43:27;3.40;99.90
36800;DHT22;22752;51.960;5.886;2024-03-08T00:45:53;3.40;99.90
36800;DHT22;22752;51.960;5.886;2024-03-08T00:48:18;3.40;99.90
36800;DHT22;22752;51.960;5.886;2024-03-08T00:50:44;3.40;99.90
36800;DHT22;22752;51.960;5.886;2024-03-08T00:53:11;3.40;99.90
36800;DHT22;22752;51.960;5.886;2024-03-08T00:55:37;3.40;99.90
36800;DHT22;22752;51.960;5.886;2024-03-08T00:58:04;3.30;99.90
36800;DHT22;22752;51.960;5.886;2024-03-08T01:00:30;3.30;99.90
36800;DHT22;22752;51.960;5.886;2024-03-08T01:02:56;3.30;99.90
36800;DHT22;22752;51.960;5.886;2024-03-08T01:05:22;3.30;99.90
36800;DHT22;22752;51.960;5.886;2024-03-08T01:07:50;3.30;99.90
36800;DHT22;22752;51.960;5.886;2024-03-08T01:10:16;3.30;99.90
36800;DHT22;22752;51.960;5.886;2024-03-08T01:12:41;3.20;99.90
36800;DHT22;22752;51.960;5.886;2024-03-08T01:15:09;3.20;99.90
36800;DHT22;22752;51.960;5.886;2024-03-08T01:17:36;3.20;99.90
36800;DHT22;22752;51.960;5.886;2024-03-08T01:20:03;3.10;99.90
36800;DHT22;22752;51.960;5.886;2024-03-08T01:22:29;3.10;99.90
36800;DHT22;22752;51.960;5.886;2024-03-08T01:24:55;3.10;99.90
36800;DHT22;22752;51.960;5.886;2024-03-08T01:27:21;3.10;99.90
36800;DHT22;22752;51.960;5.886;2024-03-08T01:29:47;3.10;99.90
36800;DHT22;22752;51.960;5.886;2024-03-08T01:32:13;3.00;99.90
36800;DHT22;22752;51.960;5.886;2024-03-08T01:34:40;3.00;99.90
36800;DHT22;22752;51.960;5.886;2024-03-08T01:37:06;3.00;99.90
36800;DHT22;22752;51.960;5.886;2024-03-08T01:39:32;3.00;99.90
36800;DHT22;22752;51.960;5.886;2024-03-08T01:41:58;3.00;99.90
36800;DHT22;22752;51.960;5.886;2024-03-08T01:44:23;3.00;99.90
36800;DHT22;22752;51.960;5.886;2024-03-08T01:46:50;3.00;99.90
36800;DHT22;22752;51.960;5.886;2024-03-08T01:49:18;2.90;99.90
36800;DHT22;22752;51.960;5.886;2024-03-08T01:51:47;2.90;99.90
36800;DHT22;22752;51.960;5.886;2024-03-08T01:54:16;3.00;99.90
36800;DHT22;22752;51.960;5.886;2024-03-08T01:56:42;2.90;99.90
36800;DHT22;22752;51.960;5.886;2024-03-08T01:59:08;2.90;99.90
36800;DHT22;22752;51.960;5.886;2024-03-08T02:01:34;2.80;99.90
36800;DHT22;22752;51.960;5.886;2024-03-08T02:04:00;2.80;99.90
36800;DHT22;22752;51.960;5.886;2024-03-08T02:06:25;2.80;99.90
36800;DHT22;22752;51.960;5.886;2024-03-08T02:08:51;2.80;99.90
36800;DHT22;22752;51.960;5.886;2024-03-08T02:11:17;2.80;99.90
36800;DHT22;22752;51.960;5.886;2024-03-08T02:13:44;2.70;99.90
36800;DHT22;22752;51.960;5.886;2024-03-08T02:16:10;2.70;99.90
36800;DHT22;22752;51.960;5.886;2024-03-08T02:18:36;2.70;99.90
36800;DHT22;22752;51.960;5.886;2024-03-08T02:21:05;2.70;99.90
36800;DHT22;22752;51.960;5.886;2024-03-08T02:23:32;2.70;99.90
36800;DHT22;22752;51.960;5.886;2024-03-08T02:25:58;2.70;99.90
36800;DHT22;22752;51.960;5.886;2024-03-08T02:28:25;2.70;99.90
36800;DHT22;22752;51.960;5.886;2024-03-08T02:30:51;2.70;99.90
36800;DHT22;22752;51.960;5.886;2024-03-08T02:33:21;2.60;99.90
36800;DHT22;22752;51.960;5.886;2024-03-08T02:35:48;2.60;99.90
36800;DHT22;22752;51.960;5.886;2024-03-08T02:38:15;2.60;99.90
36800;DHT22;22752;51.960;5.886;2024-03-08T02:40:49;2.60;99.90
36800;DHT22;22752;51.960;5.886;2024-03-08T02:43:16;2.60;99.90
36800;DHT22;22752;51.960;5.886;2024-03-08T02:45:43;2.50;99.90
36800;DHT22;22752;51.960;5.886;2024-03-08T02:48:13;2.50;99.90
36800;DHT22;22752;51.960;5.886;2024-03-08T02:50:39;2.60;99.90
36800;DHT22;22752;51.960;5.886;2024-03-08T02:53:14;2.50;99.90
36800;DHT22;22752;51.960;5.886;2024-03-08T02:55:40;2.50;99.90
36800;DHT22;22752;51.960;5.886;2024-03-08T02:58:07;2.50;99.90
36800;DHT22;22752;51.960;5.886;2024-03-08T03:00:36;2.40;99.90
36800;DHT22;22752;51.960;5.886;2024-03-08T03:03:02;2.40;99.90
36800;DHT22;22752;51.960;5.886;2024-03-08T03:05:29;2.40;99.90
36800;DHT22;22752;51.960;5.886;2024-03-08T03:07:55;2.40;99.90
36800;DHT22;22752;51.960;5.886;2024-03-08T03:10:21;2.30;99.90
36800;DHT22;22752;51.960;5.886;2024-03-08T03:12:48;2.30;99.90
36800;DHT22;22752;51.960;5.886;2024-03-08T03:15:15;2.30;99.90
36800;DHT22;22752;51.960;5.886;2024-03-08T03:17:46;2.30;99.90
36800;DHT22;22752;51.960;5.886;2024-03-08T03:20:13;2.30;99.90
36800;DHT22;22752;51.960;5.886;2024-03-08T03:22:40;2.30;99.90
36800;DHT22;22752;51.960;5.886;2024-03-08T03:25:12;2.30;99.90
36800;DHT22;22752;51.960;5.886;2024-03-08T03:27:38;2.30;99.90
36800;DHT22;22752;51.960;5.886;2024-03-08T03:30:06;2.20;99.90
36800;DHT22;22752;51.960;5.886;2024-03-08T03:32:48;2.20;99.90
36800;DHT22;22752;51.960;5.886;2024-03-08T03:35:14;2.20;99.90
36800;DHT22;22752;51.960;5.886;2024-03-08T03:37:42;2.20;99.90
36800;DHT22;22752;51.960;5.886;2024-03-08T03:40:12;2.10;99.90
36800;DHT22;22752;51.960;5.886;2024-03-08T03:42:38;2.10;99.90
36800;DHT22;22752;51.960;5.886;2024-03-08T03:45:06;2.10;99.90
36800;DHT22;22752;51.960;5.886;2024-03-08T03:47:31;2.10;99.90
36800;DHT22;22752;51.960;5.886;2024-03-08T03:49:57;2.10;99.90
36800;DHT22;22752;51.960;5.886;2024-03-08T03:52:27;2.10;99.90
36800;DHT22;22752;51.960;5.886;2024-03-08T03:54:53;2.10;99.90
36800;DHT22;22752;51.960;5.886;2024-03-08T03:57:18;2.00;99.90
36800;DHT22;22752;51.960;5.886;2024-03-08T03:59:45;2.00;99.90
36800;DHT22;22752;51.960;5.886;2024-03-08T04:02:13;2.00;99.90
36800;DHT22;22752;51.960;5.886;2024-03-08T04:04:38;2.00;99.90
36800;DHT22;22752;51.960;5.886;2024-03-08T04:07:04;2.00;99.90
36800;DHT22;22752;51.960;5.886;2024-03-08T04:09:30;2.00;99.90
36800;DHT22;22752;51.960;5.886;2024-03-08T04:11:56;2.00;99.90
36800;DHT22;22752;51.960;5.886;2024-03-08T04:14:22;2.00;99.90
36800;DHT22;22752;51.960;5.886;2024-03-08T04:16:48;2.00;99.90
36800;DHT22;22752;51.960;5.886;2024-03-08T04:19:14;1.90;99.90
36800;DHT22;22752;51.960;5.886;2024-03-08T04:21:39;1.90;99.90
36800;DHT22;22752;51.960;5.886;2024-03-08T04:24:05;1.90;99.90
36800;DHT22;22752;51.960;5.886;2024-03-08T04:26:31;1.90;99.90
36800;DHT22;22752;51.960;5.886;2024-03-08T04:28:57;1.90;99.90
36800;DHT22;22752;51.960;5.886;2024-03-08T04:31:23;1.90;99.90
36800;DHT22;22752;51.960;5.886;2024-03-08T04:33:48;1.90;99.90
36800;DHT22;22752;51.960;5.886;2024-03-08T04:36:14;1.90;99.90
36800;DHT22;22752;51.960;5.886;2024-03-08T04:38:40;1.90;99.90
36800;DHT22;22752;51.960;5.886;2024-03-08T04:41:06;1.90;99.90
36800;DHT22;22752;51.960;5.886;2024-03-08T04:43:33;1.90;99.90
36800;DHT22;22752;51.960;5.886;2024-03-08T04:45:59;1.90;99.90
36800;DHT22;22752;51.960;5.886;2024-03-08T04:48:25;1.90;99.90
36800;DHT22;22752;51.960;5.886;2024-03-08T04:50:53;1.90;99.90
36800;DHT22;22752;51.960;5.886;2024-03-08T04:53:19;1.90;99.90
36800;DHT22;22752;51.960;5.886;2024-03-08T04:55:45;1.90;99.90
36800;DHT22;22752;51.960;5.886;2024-03-08T04:58:11;1.90;99.90
36800;DHT22;22752;51.960;5.886;2024-03-08T05:00:36;1.90;99.90
36800;DHT22;22752;51.960;5.886;2024-03-08T05:03:02;1.90;99.90
36800;DHT22;22752;51.960;5.886;2024-03-08T05:05:30;1.90;99.90
36800;DHT22;22752;51.960;5.886;2024-03-08T05:07:56;1.90;99.90
36800;DHT22;22752;51.960;5.886;2024-03-08T05:10:22;1.90;99.90
36800;DHT22;22752;51.960;5.886;2024-03-08T05:12:47;1.90;99.90
36800;DHT22;22752;51.960;5.886;2024-03-08T05:15:13;1.80;99.90
36800;DHT22;22752;51.960;5.886;2024-03-08T05:17:39;1.80;99.90
36800;DHT22;22752;51.960;5.886;2024-03-08T05:20:06;1.80;99.90
36800;DHT22;22752;51.960;5.886;2024-03-08T05:22:34;1.90;99.90
36800;DHT22;22752;51.960;5.886;2024-03-08T05:24:59;1.80;99.90
36800;DHT22;22752;51.960;5.886;2024-03-08T05:27:26;1.90;99.90
36800;DHT22;22752;51.960;5.886;2024-03-08T05:29:51;1.90;99.90
36800;DHT22;22752;51.960;5.886;2024-03-08T05:32:17;1.90;99.90
36800;DHT22;22752;51.960;5.886;2024-03-08T05:34:43;1.80;99.90
36800;DHT22;22752;51.960;5.886;2024-03-08T05:37:10;1.80;99.90
36800;DHT22;22752;51.960;5.886;2024-03-08T05:39:36;1.80;99.90
36800;DHT22;22752;51.960;5.886;2024-03-08T05:42:02;1.80;99.90
36800;DHT22;22752;51.960;5.886;2024-03-08T05:44:28;1.70;99.90
36800;DHT22;22752;51.960;5.886;2024-03-08T05:46:56;1.80;99.90
36800;DHT22;22752;51.960;5.886;2024-03-08T05:49:22;1.80;99.90
36800;DHT22;22752;51.960;5.886;2024-03-08T05:51:48;1.80;99.90
36800;DHT22;22752;51.960;5.886;2024-03-08T05:54:13;1.80;99.90
36800;DHT22;22752;51.960;5.886;2024-03-08T05:56:40;1.80;99.90
36800;DHT22;22752;51.960;5.886;2024-03-08T05:59:10;1.80;99.90
36800;DHT22;22752;51.960;5.886;2024-03-08T06:01:35;1.70;99.90
36800;DHT22;22752;51.960;5.886;2024-03-08T06:04:03;1.80;99.90
36800;DHT22;22752;51.960;5.886;2024-03-08T06:06:29;1.70;99.90
36800;DHT22;22752;51.960;5.886;2024-03-08T06:08:55;1.70;99.90
36800;DHT22;22752;51.960;5.886;2024-03-08T06:11:25;1.70;99.90
36800;DHT22;22752;51.960;5.886;2024-03-08T06:13:54;1.70;99.90
36800;DHT22;22752;51.960;5.886;2024-03-08T06:16:28;1.70;99.90
36800;DHT22;22752;51.960;5.886;2024-03-08T06:18:58;1.70;99.90
36800;DHT22;22752;51.960;5.886;2024-03-08T06:21:24;1.70;99.90
36800;DHT22;22752;51.960;5.886;2024-03-08T06:23:54;1.70;99.90
36800;DHT22;22752;51.960;5.886;2024-03-08T06:26:21;1.70;99.90
36800;DHT22;22752;51.960;5.886;2024-03-08T06:28:47;1.70;99.90
36800;DHT22;22752;51.960;5.886;2024-03-08T06:31:13;1.80;99.90
36800;DHT22;22752;51.960;5.886;2024-03-08T06:33:40;1.80;99.90
36800;DHT22;22752;51.960;5.886;2024-03-08T06:36:06;1.80;99.90
36800;DHT22;22752;51.960;5.886;2024-03-08T06:38:32;1.80;99.90
36800;DHT22;22752;51.960;5.886;2024-03-08T06:40:58;1.80;99.90
36800;DHT22;22752;51.960;5.886;2024-03-08T06:43:23;1.80;99.90
36800;DHT22;22752;51.960;5.886;2024-03-08T06:45:55;1.80;99.90
36800;DHT22;22752;51.960;5.886;2024-03-08T06:48:21;1.90;99.90
36800;DHT22;22752;51.960;5.886;2024-03-08T06:50:47;1.90;99.90
36800;DHT22;22752;51.960;5.886;2024-03-08T06:53:13;2.00;99.90
36800;DHT22;22752;51.960;5.886;2024-03-08T06:55:39;2.00;99.90
36800;DHT22;22752;51.960;5.886;2024-03-08T06:58:05;2.10;99.90
36800;DHT22;22752;51.960;5.886;2024-03-08T07:00:32;2.10;99.90
36800;DHT22;22752;51.960;5.886;2024-03-08T07:02:58;2.20;99.90
36800;DHT22;22752;51.960;5.886;2024-03-08T07:05:28;2.20;99.90
36800;DHT22;22752;51.960;5.886;2024-03-08T07:07:54;2.30;99.90
36800;DHT22;22752;51.960;5.886;2024-03-08T07:10:21;2.30;99.90
36800;DHT22;22752;51.960;5.886;2024-03-08T07:12:49;2.40;99.90
36800;DHT22;22752;51.960;5.886;2024-03-08T07:15:15;2.40;99.90
36800;DHT22;22752;51.960;5.886;2024-03-08T07:17:41;2.50;99.90
36800;DHT22;22752;51.960;5.886;2024-03-08T07:20:10;2.50;99.90
36800;DHT22;22752;51.960;5.886;2024-03-08T07:22:38;2.60;99.90
36800;DHT22;22752;51.960;5.886;2024-03-08T07:25:07;2.60;99.90
36800;DHT22;22752;51.960;5.886;2024-03-08T07:27:33;2.70;99.90
36800;DHT22;22752;51.960;5.886;2024-03-08T07:30:05;2.70;99.90
36800;DHT22;22752;51.960;5.886;2024-03-08T07:32:31;2.80;99.90
36800;DHT22;22752;51.960;5.886;2024-03-08T07:34:57;2.80;99.90
36800;DHT22;22752;51.960;5.886;2024-03-08T07:37:23;2.90;99.90
36800;DHT22;22752;51.960;5.886;2024-03-08T07:39:49;3.00;99.90
36800;DHT22;22752;51.960;5.886;2024-03-08T07:42:15;3.00;99.90
36800;DHT22;22752;51.960;5.886;2024-03-08T07:44:42;3.10;99.90
36800;DHT22;22752;51.960;5.886;2024-03-08T07:47:08;3.10;99.90
36800;DHT22;22752;51.960;5.886;2024-03-08T07:49:35;3.10;99.90
36800;DHT22;22752;51.960;5.886;2024-03-08T07:52:03;3.20;99.90
36800;DHT22;22752;51.960;5.886;2024-03-08T07:54:30;3.30;99.90
36800;DHT22;22752;51.960;5.886;2024-03-08T07:56:56;3.30;99.90
36800;DHT22;22752;51.960;5.886;2024-03-08T07:59:22;3.40;99.90
36800;DHT22;22752;51.960;5.886;2024-03-08T08:01:47;3.40;99.90
36800;DHT22;22752;51.960;5.886;2024-03-08T08:04:13;3.50;99.90
36800;DHT22;22752;51.960;5.886;2024-03-08T08:06:40;3.50;99.90
36800;DHT22;22752;51.960;5.886;2024-03-08T08:09:09;3.50;99.90
36800;DHT22;22752;51.960;5.886;2024-03-08T08:11:43;3.60;99.90
36800;DHT22;22752;51.960;5.886;2024-03-08T08:14:09;3.70;99.90
36800;DHT22;22752;51.960;5.886;2024-03-08T08:16:38;3.70;99.90
36800;DHT22;22752;51.960;5.886;2024-03-08T08:19:06;3.80;99.90
36800;DHT22;22752;51.960;5.886;2024-03-08T08:21:36;3.80;99.90
36800;DHT22;22752;51.960;5.886;2024-03-08T08:24:03;3.90;99.90
36800;DHT22;22752;51.960;5.886;2024-03-08T08:26:30;3.90;99.90
36800;DHT22;22752;51.960;5.886;2024-03-08T08:28:55;4.00;99.90
36800;DHT22;22752;51.960;5.886;2024-03-08T08:31:21;4.10;99.90
36800;DHT22;22752;51.960;5.886;2024-03-08T08:33:47;4.10;99.90
36800;DHT22;22752;51.960;5.886;2024-03-08T08:36:14;4.20;99.90
36800;DHT22;22752;51.960;5.886;2024-03-08T08:38:40;4.10;99.90
36800;DHT22;22752;51.960;5.886;2024-03-08T08:41:09;4.20;99.90
36800;DHT22;22752;51.960;5.886;2024-03-08T08:43:36;4.30;99.90
36800;DHT22;22752;51.960;5.886;2024-03-08T08:46:02;4.40;99.90
36800;DHT22;22752;51.960;5.886;2024-03-08T08:48:28;4.50;99.90
36800;DHT22;22752;51.960;5.886;2024-03-08T08:50:54;4.60;99.90
36800;DHT22;22752;51.960;5.886;2024-03-08T08:53:20;4.70;99.90
36800;DHT22;22752;51.960;5.886;2024-03-08T08:55:47;4.80;99.90
36800;DHT22;22752;51.960;5.886;2024-03-08T08:58:13;4.90;99.90
36800;DHT22;22752;51.960;5.886;2024-03-08T09:00:39;5.00;99.90
36800;DHT22;22752;51.960;5.886;2024-03-08T09:03:05;5.10;99.90
36800;DHT22;22752;51.960;5.886;2024-03-08T09:05:32;5.30;99.90
36800;DHT22;22752;51.960;5.886;2024-03-08T09:07:59;5.50;99.90
36800;DHT22;22752;51.960;5.886;2024-03-08T09:10:26;5.70;99.90
36800;DHT22;22752;51.960;5.886;2024-03-08T09:12:53;5.80;99.90
36800;DHT22;22752;51.960;5.886;2024-03-08T09:15:19;5.90;99.90
36800;DHT22;22752;51.960;5.886;2024-03-08T09:17:46;6.00;99.90
36800;DHT22;22752;51.960;5.886;2024-03-08T09:20:12;6.10;99.90
36800;DHT22;22752;51.960;5.886;2024-03-08T09:22:44;6.20;99.90
36800;DHT22;22752;51.960;5.886;2024-03-08T09:25:09;6.20;99.90
36800;DHT22;22752;51.960;5.886;2024-03-08T09:27:35;6.20;99.90
36800;DHT22;22752;51.960;5.886;2024-03-08T09:30:01;6.20;99.90
36800;DHT22;22752;51.960;5.886;2024-03-08T09:32:27;6.10;99.90
36800;DHT22;22752;51.960;5.886;2024-03-08T09:34:52;6.20;99.90
36800;DHT22;22752;51.960;5.886;2024-03-08T09:37:18;6.30;99.90
36800;DHT22;22752;51.960;5.886;2024-03-08T09:39:44;6.40;99.90
36800;DHT22;22752;51.960;5.886;2024-03-08T09:42:10;6.40;99.90
36800;DHT22;22752;51.960;5.886;2024-03-08T09:44:46;6.40;99.90
36800;DHT22;22752;51.960;5.886;2024-03-08T09:47:14;6.50;99.90
36800;DHT22;22752;51.960;5.886;2024-03-08T09:49:41;6.60;99.90
36800;DHT22;22752;51.960;5.886;2024-03-08T09:52:07;6.60;99.90
36800;DHT22;22752;51.960;5.886;2024-03-08T09:54:33;6.70;99.90
36800;DHT22;22752;51.960;5.886;2024-03-08T09:56:59;6.80;99.90
36800;DHT22;22752;51.960;5.886;2024-03-08T09:59:25;6.90;99.90
36800;DHT22;22752;51.960;5.886;2024-03-08T10:01:51;6.90;99.90
36800;DHT22;22752;51.960;5.886;2024-03-08T10:04:24;7.00;99.90
36800;DHT22;22752;51.960;5.886;2024-03-08T10:06:51;7.10;99.90
36800;DHT22;22752;51.960;5.886;2024-03-08T10:09:17;7.20;99.90
36800;DHT22;22752;51.960;5.886;2024-03-08T10:11:44;7.40;99.90
36800;DHT22;22752;51.960;5.886;2024-03-08T10:14:10;7.40;99.90
36800;DHT22;22752;51.960;5.886;2024-03-08T10:16:37;7.50;99.90
36800;DHT22;22752;51.960;5.886;2024-03-08T10:19:03;7.50;99.90
36800;DHT22;22752;51.960;5.886;2024-03-08T10:21:32;7.50;99.90
36800;DHT22;22752;51.960;5.886;2024-03-08T10:23:58;7.60;99.90
36800;DHT22;22752;51.960;5.886;2024-03-08T10:26:24;7.70;99.90
36800;DHT22;22752;51.960;5.886;2024-03-08T10:28:53;7.70;99.90
36800;DHT22;22752;51.960;5.886;2024-03-08T10:31:20;7.80;99.90
36800;DHT22;22752;51.960;5.886;2024-03-08T10:33:46;7.90;99.90
36800;DHT22;22752;51.960;5.886;2024-03-08T10:36:14;8.10;99.90
36800;DHT22;22752;51.960;5.886;2024-03-08T10:38:42;8.20;99.90
36800;DHT22;22752;51.960;5.886;2024-03-08T10:41:09;8.30;99.90
36800;DHT22;22752;51.960;5.886;2024-03-08T10:44:05;8.30;99.90
36800;DHT22;22752;51.960;5.886;2024-03-08T10:49:29;8.40;99.90
36800;DHT22;22752;51.960;5.886;2024-03-08T10:51:57;8.40;99.90
36800;DHT22;22752;51.960;5.886;2024-03-08T10:54:25;8.60;99.90
36800;DHT22;22752;51.960;5.886;2024-03-08T10:56:51;8.80;99.90
36800;DHT22;22752;51.960;5.886;2024-03-08T10:59:18;8.90;99.90
36800;DHT22;22752;51.960;5.886;2024-03-08T11:01:45;8.90;99.90
36800;DHT22;22752;51.960;5.886;2024-03-08T11:04:12;8.90;99.90
36800;DHT22;22752;51.960;5.886;2024-03-08T11:11:48;9.10;99.90
36800;DHT22;22752;51.960;5.886;2024-03-08T11:14:42;9.20;99.90
36800;DHT22;22752;51.960;5.886;2024-03-08T11:17:08;9.20;99.90
36800;DHT22;22752;51.960;5.886;2024-03-08T11:19:34;9.20;99.90
36800;DHT22;22752;51.960;5.886;2024-03-08T11:22:03;9.40;99.90
36800;DHT22;22752;51.960;5.886;2024-03-08T11:24:37;9.40;99.90
36800;DHT22;22752;51.960;5.886;2024-03-08T11:27:06;9.40;99.90
36800;DHT22;22752;51.960;5.886;2024-03-08T11:29:33;9.50;99.90
36800;DHT22;22752;51.960;5.886;2024-03-08T11:34:32;9.50;99.90
36800;DHT22;22752;51.960;5.886;2024-03-08T11:36:59;9.70;99.90
36800;DHT22;22752;51.960;5.886;2024-03-08T11:39:25;9.80;99.90
36800;DHT22;22752;51.960;5.886;2024-03-08T11:41:51;9.90;99.90
36800;DHT22;22752;51.960;5.886;2024-03-08T11:44:17;9.90;99.90
36800;DHT22;22752;51.960;5.886;2024-03-08T11:46:43;9.90;99.90
36800;DHT22;22752;51.960;5.886;2024-03-08T11:49:14;10.00;99.90
36800;DHT22;22752;51.960;5.886;2024-03-08T11:51:40;10.10;99.90
36800;DHT22;22752;51.960;5.886;2024-03-08T11:54:10;10.20;99.90
36800;DHT22;22752;51.960;5.886;2024-03-08T11:56:37;10.20;99.90
36800;DHT22;22752;51.960;5.886;2024-03-08T11:59:03;10.20;99.90
36800;DHT22;22752;51.960;5.886;2024-03-08T12:01:28;10.30;99.90
36800;DHT22;22752;51.960;5.886;2024-03-08T12:03:55;10.30;99.90
36800;DHT22;22752;51.960;5.886;2024-03-08T12:06:24;10.30;99.90
36800;DHT22;22752;51.960;5.886;2024-03-08T12:08:50;10.20;99.90
36800;DHT22;22752;51.960;5.886;2024-03-08T12:11:17;10.20;99.90
36800;DHT22;22752;51.960;5.886;2024-03-08T12:13:48;10.20;99.90
36800;DHT22;22752;51.960;5.886;2024-03-08T12:16:19;10.30;99.90
36800;DHT22;22752;51.960;5.886;2024-03-08T12:18:48;10.30;99.90
36800;DHT22;22752;51.960;5.886;2024-03-08T12:21:14;10.30;99.90
36800;DHT22;22752;51.960;5.886;2024-03-08T12:23:44;10.30;99.90
36800;DHT22;22752;51.960;5.886;2024-03-08T12:26:14;10.30;99.90
36800;DHT22;22752;51.960;5.886;2024-03-08T12:28:44;10.30;99.90
36800;DHT22;22752;51.960;5.886;2024-03-08T12:31:14;10.30;99.90
36800;DHT22;22752;51.960;5.886;2024-03-08T12:33:54;10.40;99.90
36800;DHT22;22752;51.960;5.886;2024-03-08T12:36:21;10.40;99.90
36800;DHT22;22752;51.960;5.886;2024-03-08T12:38:47;10.40;99.90
36800;DHT22;22752;51.960;5.886;2024-03-08T12:41:14;10.40;99.90
36800;DHT22;22752;51.960;5.886;2024-03-08T12:43:40;10.40;99.90
36800;DHT22;22752;51.960;5.886;2024-03-08T12:46:06;10.40;99.90
36800;DHT22;22752;51.960;5.886;2024-03-08T12:48:37;10.40;99.90
36800;DHT22;22752;51.960;5.886;2024-03-08T12:51:06;10.50;99.90
36800;DHT22;22752;51.960;5.886;2024-03-08T12:53:33;10.60;99.90
36800;DHT22;22752;51.960;5.886;2024-03-08T12:55:58;10.60;99.90
36800;DHT22;22752;51.960;5.886;2024-03-08T12:58:24;10.60;99.90
36800;DHT22;22752;51.960;5.886;2024-03-08T13:00:51;10.60;99.90
36800;DHT22;22752;51.960;5.886;2024-03-08T13:03:17;10.50;99.90
36800;DHT22;22752;51.960;5.886;2024-03-08T13:05:43;10.40;99.90
36800;DHT22;22752;51.960;5.886;2024-03-08T13:08:09;10.40;99.90
36800;DHT22;22752;51.960;5.886;2024-03-08T13:10:41;10.40;99.90
36800;DHT22;22752;51.960;5.886;2024-03-08T13:13:11;10.40;99.90
36800;DHT22;22752;51.960;5.886;2024-03-08T13:15:40;10.50;99.90
36800;DHT22;22752;51.960;5.886;2024-03-08T13:18:06;10.50;99.90
36800;DHT22;22752;51.960;5.886;2024-03-08T13:20:34;10.50;99.90
36800;DHT22;22752;51.960;5.886;2024-03-08T13:23:03;10.60;99.90
36800;DHT22;22752;51.960;5.886;2024-03-08T13:25:30;10.60;99.90
36800;DHT22;22752;51.960;5.886;2024-03-08T13:27:57;10.70;99.90
36800;DHT22;22752;51.960;5.886;2024-03-08T13:30:24;10.70;99.90
36800;DHT22;22752;51.960;5.886;2024-03-08T13:32:55;10.80;99.90
36800;DHT22;22752;51.960;5.886;2024-03-08T13:35:20;10.80;99.90
36800;DHT22;22752;51.960;5.886;2024-03-08T13:37:55;10.80;99.90
36800;DHT22;22752;51.960;5.886;2024-03-08T13:40:21;10.90;99.90
36800;DHT22;22752;51.960;5.886;2024-03-08T13:42:47;10.90;99.90
36800;DHT22;22752;51.960;5.886;2024-03-08T13:45:14;10.90;99.90
36800;DHT22;22752;51.960;5.886;2024-03-08T13:47:43;10.90;99.90
36800;DHT22;22752;51.960;5.886;2024-03-08T13:50:10;11.00;99.90
36800;DHT22;22752;51.960;5.886;2024-03-08T13:52:41;11.00;99.90
36800;DHT22;22752;51.960;5.886;2024-03-08T13:55:09;11.10;99.90
36800;DHT22;22752;51.960;5.886;2024-03-08T13:57:35;11.00;99.90
36800;DHT22;22752;51.960;5.886;2024-03-08T14:00:01;11.10;99.90
36800;DHT22;22752;51.960;5.886;2024-03-08T14:02:26;11.10;99.90
36800;DHT22;22752;51.960;5.886;2024-03-08T14:04:54;11.20;99.90
36800;DHT22;22752;51.960;5.886;2024-03-08T14:07:20;11.20;99.90
36800;DHT22;22752;51.960;5.886;2024-03-08T14:09:46;11.30;99.90
36800;DHT22;22752;51.960;5.886;2024-03-08T14:12:12;11.30;99.90
36800;DHT22;22752;51.960;5.886;2024-03-08T14:14:41;11.30;99.90
36800;DHT22;22752;51.960;5.886;2024-03-08T14:17:07;11.30;99.90
36800;DHT22;22752;51.960;5.886;2024-03-08T14:19:35;11.30;99.90
36800;DHT22;22752;51.960;5.886;2024-03-08T14:22:01;11.30;99.90
36800;DHT22;22752;51.960;5.886;2024-03-08T14:24:30;11.50;99.90
36800;DHT22;22752;51.960;5.886;2024-03-08T14:26:56;12.00;99.90
36800;DHT22;22752;51.960;5.886;2024-03-08T14:29:25;12.60;99.90
36800;DHT22;22752;51.960;5.886;2024-03-08T14:31:55;13.10;99.80
36800;DHT22;22752;51.960;5.886;2024-03-08T14:34:24;13.50;99.30
36800;DHT22;22752;51.960;5.886;2024-03-08T14:36:52;13.70;98.90
36800;DHT22;22752;51.960;5.886;2024-03-08T14:39:19;13.80;98.70
36800;DHT22;22752;51.960;5.886;2024-03-08T14:41:47;13.90;98.30
36800;DHT22;22752;51.960;5.886;2024-03-08T14:44:13;14.00;98.40
36800;DHT22;22752;51.960;5.886;2024-03-08T14:46:40;14.10;97.90
36800;DHT22;22752;51.960;5.886;2024-03-08T14:49:07;14.20;98.10
36800;DHT22;22752;51.960;5.886;2024-03-08T14:51:33;14.40;97.40
36800;DHT22;22752;51.960;5.886;2024-03-08T14:54:00;14.50;97.40
36800;DHT22;22752;51.960;5.886;2024-03-08T14:56:26;14.60;97.30
36800;DHT22;22752;51.960;5.886;2024-03-08T14:58:52;14.90;97.00
36800;DHT22;22752;51.960;5.886;2024-03-08T15:01:19;15.00;96.60
36800;DHT22;22752;51.960;5.886;2024-03-08T15:03:49;15.10;96.90
36800;DHT22;22752;51.960;5.886;2024-03-08T15:06:16;15.20;96.20
36800;DHT22;22752;51.960;5.886;2024-03-08T15:08:45;15.10;96.10
36800;DHT22;22752;51.960;5.886;2024-03-08T15:11:12;15.20;96.30
36800;DHT22;22752;51.960;5.886;2024-03-08T15:13:37;15.50;95.70
36800;DHT22;22752;51.960;5.886;2024-03-08T15:16:08;15.70;95.70
36800;DHT22;22752;51.960;5.886;2024-03-08T15:18:34;15.80;95.30
36800;DHT22;22752;51.960;5.886;2024-03-08T15:21:02;15.70;95.00
36800;DHT22;22752;51.960;5.886;2024-03-08T15:23:33;15.80;95.00
36800;DHT22;22752;51.960;5.886;2024-03-08T15:25:59;15.90;94.70
36800;DHT22;22752;51.960;5.886;2024-03-08T15:28:25;16.00;94.70
36800;DHT22;22752;51.960;5.886;2024-03-08T15:30:59;16.00;94.30
36800;DHT22;22752;51.960;5.886;2024-03-08T15:33:30;16.00;93.90
36800;DHT22;22752;51.960;5.886;2024-03-08T15:35:56;15.80;93.90
36800;DHT22;22752;51.960;5.886;2024-03-08T15:38:29;15.80;93.80
36800;DHT22;22752;51.960;5.886;2024-03-08T15:40:55;15.70;94.00
36800;DHT22;22752;51.960;5.886;2024-03-08T15:43:21;15.70;93.60
36800;DHT22;22752;51.960;5.886;2024-03-08T15:45:48;15.50;93.60
36800;DHT22;22752;51.960;5.886;2024-03-08T15:48:14;15.40;93.70
36800;DHT22;22752;51.960;5.886;2024-03-08T15:50:39;15.40;93.70
36800;DHT22;22752;51.960;5.886;2024-03-08T15:53:06;15.40;93.30